createdAt,value
2022-11-02T00:01:10.183Z,13.33
2022-11-02T00:03:40.118Z,7.57
2022-11-02T00:06:08.679Z,10.67
2022-11-02T00:08:37.285Z,11.63
2022-11-02T00:11:06.177Z,18.73
2022-11-02T00:13:34.843Z,12.00
2022-11-02T00:16:04.345Z,7.93
2022-11-02T00:18:33.898Z,13.63
2022-11-02T00:21:04.620Z,11.70
2022-11-02T00:23:33.528Z,6.57
2022-11-02T00:26:02.899Z,9.73
2022-11-02T00:28:31.873Z,17.87
2022-11-02T00:31:00.435Z,9.53
2022-11-02T00:33:29.041Z,8.37
2022-11-02T00:35:57.761Z,8.10
2022-11-02T00:38:27.716Z,8.83
2022-11-02T00:40:56.289Z,10.33
2022-11-02T00:43:24.844Z,7.17
2022-11-02T00:45:53.444Z,11.23
2022-11-02T00:48:21.999Z,11.70
2022-11-02T00:50:50.564Z,10.80
2022-11-02T00:53:19.256Z,12.70
2022-11-02T00:55:49.296Z,9.90
2022-11-02T00:58:17.907Z,9.00
2022-11-02T01:00:46.531Z,17.97
2022-11-02T01:03:15.120Z,12.27
2022-11-02T01:05:43.696Z,10.33
2022-11-02T01:08:12.601Z,9.60
2022-11-02T01:10:44.104Z,8.70
2022-11-02T01:13:17.276Z,12.83
2022-11-02T01:15:45.873Z,8.83
2022-11-02T01:18:14.979Z,12.47
2022-11-02T01:20:43.597Z,8.20
2022-11-02T01:23:12.189Z,7.67
2022-11-02T01:25:47.091Z,5.93
2022-11-02T01:28:17.079Z,9.67
2022-11-02T01:30:48.374Z,11.30
2022-11-02T01:33:16.971Z,10.10
2022-11-02T01:35:45.559Z,9.40
2022-11-02T01:38:14.133Z,9.83
2022-11-02T01:40:42.697Z,11.43
2022-11-02T01:43:23.647Z,8.63
2022-11-02T01:45:55.415Z,9.63
2022-11-02T01:48:28.788Z,6.60
2022-11-02T01:50:57.753Z,12.40
2022-11-02T01:53:26.368Z,10.03
2022-11-02T01:55:55.755Z,5.47
2022-11-02T01:58:25.760Z,6.33
2022-11-02T02:00:56.374Z,13.80
2022-11-02T02:03:25.265Z,12.43
2022-11-02T02:05:57.562Z,8.90
2022-11-02T02:08:27.677Z,10.50
2022-11-02T02:10:57.333Z,10.70
2022-11-02T02:13:28.447Z,7.63
2022-11-02T02:16:04.648Z,17.17
2022-11-02T02:18:37.789Z,12.07
2022-11-02T02:21:14.237Z,9.33
2022-11-02T02:23:57.079Z,12.63
2022-11-02T02:26:59.709Z,14.33
2022-11-02T02:29:33.720Z,15.53
2022-11-02T02:32:05.627Z,10.33
2022-11-02T02:34:38.371Z,11.90
2022-11-02T02:37:09.215Z,13.63
2022-11-02T02:39:42.987Z,8.67
2022-11-02T02:42:14.880Z,9.53
2022-11-02T02:44:48.134Z,9.63
2022-11-02T02:47:19.178Z,14.20
2022-11-02T02:49:51.312Z,8.07
2022-11-02T02:52:21.012Z,10.30
2022-11-02T02:54:51.250Z,9.10
2022-11-02T02:57:22.964Z,9.47
2022-11-02T02:59:55.001Z,11.03
2022-11-02T03:02:26.949Z,10.93
2022-11-02T03:04:55.597Z,9.53
2022-11-02T03:07:31.127Z,8.30
2022-11-02T03:10:08.207Z,12.60
2022-11-02T03:12:41.222Z,9.87
2022-11-02T03:15:14.515Z,14.07
2022-11-02T03:17:48.140Z,10.97
2022-11-02T03:20:24.081Z,9.20
2022-11-02T03:22:59.719Z,7.07
2022-11-02T03:25:31.072Z,9.20
2022-11-02T03:28:07.785Z,6.73
2022-11-02T03:30:41.023Z,10.10
2022-11-02T03:33:15.600Z,9.23
2022-11-02T03:35:49.080Z,12.23
2022-11-02T03:38:21.169Z,8.00
2022-11-02T03:40:52.080Z,10.23
2022-11-02T03:43:21.840Z,7.70
2022-11-02T03:45:53.907Z,10.70
2022-11-02T03:48:24.435Z,8.33
2022-11-02T03:50:53.865Z,8.80
2022-11-02T03:53:25.460Z,8.63
2022-11-02T03:55:56.114Z,12.10
2022-11-02T03:58:25.755Z,9.90
2022-11-02T04:00:58.488Z,10.40
2022-11-02T04:03:27.098Z,8.30
2022-11-02T04:05:55.677Z,8.40
2022-11-02T04:08:29.336Z,13.40
2022-11-02T04:11:15.378Z,9.27
2022-11-02T04:14:01.377Z,12.97
2022-11-02T04:16:31.287Z,16.93
2022-11-02T04:19:17.225Z,10.33
2022-11-02T04:22:05.935Z,12.60
2022-11-02T04:24:52.337Z,11.83
2022-11-02T04:27:21.471Z,10.10
2022-11-02T04:29:50.428Z,10.53
2022-11-02T04:32:40.730Z,10.50
2022-11-02T04:35:09.386Z,6.13
2022-11-02T04:37:58.748Z,10.57
2022-11-02T04:40:27.707Z,8.13
2022-11-02T04:42:56.316Z,8.47
2022-11-02T04:45:24.932Z,10.77
2022-11-02T04:47:55.235Z,7.03
2022-11-02T04:50:23.817Z,9.00
2022-11-02T04:52:56.695Z,8.40
2022-11-02T04:55:25.669Z,7.13
2022-11-02T04:57:54.291Z,9.80
2022-11-02T05:00:23.584Z,13.37
2022-11-02T05:02:52.415Z,11.33
2022-11-02T05:05:22.434Z,6.70
2022-11-02T05:07:51.033Z,14.10
2022-11-02T05:10:19.622Z,5.13
2022-11-02T05:12:48.181Z,10.87
2022-11-02T05:15:16.858Z,12.17
2022-11-02T05:17:49.071Z,10.77
2022-11-02T05:20:17.705Z,7.63
2022-11-02T05:22:47.701Z,13.57
2022-11-02T05:25:16.494Z,10.50
2022-11-02T05:27:45.047Z,9.47
2022-11-02T05:30:14.181Z,7.30
2022-11-02T05:32:42.752Z,10.37
2022-11-02T05:35:11.350Z,13.13
2022-11-02T05:37:39.939Z,13.13
2022-11-02T05:40:11.162Z,7.20
2022-11-02T05:42:39.736Z,8.40
2022-11-02T05:45:09.091Z,7.17
2022-11-02T05:47:37.724Z,7.30
2022-11-02T05:50:06.976Z,9.47
2022-11-02T05:52:35.982Z,7.60
2022-11-02T05:55:05.326Z,8.00
2022-11-02T05:57:35.277Z,5.90
2022-11-02T06:00:05.071Z,13.90
2022-11-02T06:02:34.889Z,6.63
2022-11-02T06:05:03.621Z,7.63
2022-11-02T06:07:32.227Z,6.50
2022-11-02T06:10:00.790Z,7.27
2022-11-02T06:12:29.362Z,7.23
2022-11-02T06:14:59.328Z,7.87
2022-11-02T06:17:27.890Z,7.83
2022-11-02T06:19:56.447Z,11.93
2022-11-02T06:22:25.082Z,9.20
2022-11-02T06:24:53.639Z,13.60
2022-11-02T06:27:22.212Z,9.70
2022-11-02T06:29:50.816Z,9.40
2022-11-02T06:32:20.856Z,11.87
2022-11-02T06:34:49.464Z,8.37
2022-11-02T06:37:18.042Z,10.67
2022-11-02T06:39:46.620Z,12.17
2022-11-02T06:42:15.282Z,11.90
2022-11-02T06:44:43.919Z,8.93
2022-11-02T06:47:12.488Z,11.13
2022-11-02T06:49:42.435Z,11.60
2022-11-02T06:52:11.035Z,19.40
2022-11-02T06:54:39.632Z,8.77
2022-11-02T06:57:08.200Z,9.00
2022-11-02T06:59:37.285Z,8.13
2022-11-02T07:02:06.057Z,12.10
2022-11-02T07:04:34.747Z,20.77
2022-11-02T07:07:04.693Z,8.77
2022-11-02T07:09:33.282Z,11.13
2022-11-02T07:12:01.856Z,8.40
2022-11-02T07:14:30.416Z,11.40
2022-11-02T07:16:59.094Z,9.80
2022-11-02T07:19:27.671Z,11.83
2022-11-02T07:21:56.311Z,11.10
2022-11-02T07:24:26.298Z,14.60
2022-11-02T07:26:54.900Z,9.53
2022-11-02T07:29:23.520Z,13.97
2022-11-02T07:31:52.072Z,18.03
2022-11-02T07:34:20.691Z,9.77
2022-11-02T07:36:49.294Z,19.43
2022-11-02T07:39:18.909Z,16.87
2022-11-02T07:41:51.894Z,17.47
2022-11-02T07:44:20.809Z,14.63
2022-11-02T07:46:49.419Z,9.00
2022-11-02T07:49:21.448Z,10.53
2022-11-02T07:51:50.412Z,11.70
2022-11-02T07:54:19.010Z,10.03
2022-11-02T07:56:49.142Z,12.87
2022-11-02T07:59:17.758Z,9.37
2022-11-02T08:01:46.618Z,14.47
2022-11-02T08:04:15.267Z,17.50
2022-11-02T08:06:43.904Z,16.93
2022-11-02T08:09:12.823Z,14.50
2022-11-02T08:11:41.440Z,12.60
2022-11-02T08:14:11.713Z,9.43
2022-11-02T08:16:40.354Z,9.23
2022-11-02T08:19:09.106Z,16.23
2022-11-02T08:21:38.094Z,7.13
2022-11-02T08:24:07.563Z,10.97
2022-11-02T08:26:37.004Z,13.03
2022-11-02T08:29:07.278Z,21.63
2022-11-02T08:31:37.210Z,16.03
2022-11-02T08:34:05.806Z,11.47
2022-11-02T08:36:36.421Z,10.30
2022-11-02T08:39:05.208Z,8.70
2022-11-02T08:41:34.327Z,16.10
2022-11-02T08:44:02.931Z,19.23
2022-11-02T08:46:31.549Z,28.43
2022-11-02T08:49:01.707Z,18.80
2022-11-02T08:51:30.306Z,12.10
2022-11-02T08:53:59.277Z,15.50
2022-11-02T08:56:28.467Z,18.60
2022-11-02T08:58:57.044Z,13.20
2022-11-02T09:01:25.761Z,13.50
2022-11-02T09:03:54.389Z,15.83
2022-11-02T09:06:24.442Z,32.53
2022-11-02T09:08:55.036Z,17.53
2022-11-02T09:11:26.688Z,9.47
2022-11-02T09:13:57.101Z,15.90
2022-11-02T09:16:25.948Z,25.80
2022-11-02T09:18:54.579Z,16.93
2022-11-02T09:21:24.512Z,10.33
2022-11-02T09:23:53.129Z,12.63
2022-11-02T09:26:21.747Z,10.47
2022-11-02T09:28:50.379Z,9.80
2022-11-02T09:31:18.956Z,11.97
2022-11-02T09:33:47.633Z,7.97
2022-11-02T09:36:16.264Z,11.03
2022-11-02T09:38:46.213Z,6.73
2022-11-02T09:41:19.953Z,18.70
2022-11-02T09:43:57.078Z,11.57
2022-11-02T09:46:27.881Z,11.93
2022-11-02T09:49:01.660Z,13.23
2022-11-02T09:51:34.659Z,8.80
2022-11-02T09:54:11.743Z,7.40
2022-11-02T09:56:45.831Z,9.23
2022-11-02T09:59:16.360Z,13.70
2022-11-02T10:02:03.904Z,6.90
2022-11-02T10:04:47.783Z,7.50
2022-11-02T10:07:23.851Z,11.30
2022-11-02T10:09:56.001Z,7.93
2022-11-02T10:12:28.092Z,10.43
2022-11-02T10:15:01.971Z,4.20
2022-11-02T10:17:32.093Z,9.50
2022-11-02T10:20:04.004Z,2.00
2022-11-02T10:22:34.494Z,3.90
2022-11-02T10:25:06.082Z,6.40
2022-11-02T10:27:38.508Z,10.77
2022-11-02T10:30:12.046Z,3.67
2022-11-02T10:35:37.031Z,6.63
2022-11-02T10:38:20.245Z,7.33
2022-11-02T10:41:04.272Z,10.17
2022-11-02T10:43:48.198Z,5.87
2022-11-02T10:46:39.208Z,6.30
2022-11-02T10:49:14.890Z,8.23
2022-11-02T10:51:43.512Z,6.73
2022-11-02T10:54:16.244Z,8.13
2022-11-02T10:56:50.361Z,4.50
2022-11-02T10:59:20.499Z,4.20
2022-11-02T11:02:06.875Z,4.70
2022-11-02T11:04:37.120Z,4.67
2022-11-02T11:07:07.926Z,9.10
2022-11-02T11:09:42.891Z,7.80
2022-11-02T11:12:20.666Z,4.40
2022-11-02T11:20:34.079Z,10.67
2022-11-02T11:23:15.377Z,8.60
2022-11-02T11:25:44.251Z,6.97
2022-11-02T11:28:24.740Z,6.00
2022-11-02T11:31:04.045Z,6.80
2022-11-02T11:33:33.885Z,9.30
2022-11-02T11:36:02.536Z,6.13
2022-11-02T11:38:31.151Z,14.13
2022-11-02T11:41:00.717Z,7.00
2022-11-02T11:43:34.891Z,12.10
2022-11-02T11:46:06.855Z,4.37
2022-11-02T11:48:37.948Z,9.10
2022-11-02T11:51:25.484Z,6.63
2022-11-02T11:54:22.031Z,6.27
2022-11-02T11:56:51.911Z,11.17
2022-11-02T11:59:24.301Z,10.20
2022-11-02T12:01:55.983Z,4.07
2022-11-02T12:04:35.393Z,3.67
2022-11-02T12:07:28.912Z,5.93
2022-11-02T12:10:06.095Z,5.20
2022-11-02T12:12:56.175Z,6.60
2022-11-02T12:15:37.547Z,3.87
2022-11-02T12:18:15.190Z,7.50
2022-11-02T12:20:52.287Z,5.93
2022-11-02T12:23:31.398Z,5.40
2022-11-02T12:26:10.620Z,9.67
2022-11-02T12:28:45.431Z,3.00
2022-11-02T12:31:22.824Z,5.60
2022-11-02T12:34:06.494Z,6.10
2022-11-02T12:37:26.128Z,2.47
2022-11-02T12:39:48.716Z,5.13
2022-11-02T12:42:24.778Z,4.90
2022-11-02T12:45:02.437Z,4.57
2022-11-02T12:47:39.482Z,7.10
2022-11-02T12:50:15.563Z,7.33
2022-11-02T12:52:57.014Z,7.37
2022-11-02T12:55:30.224Z,6.77
2022-11-02T12:58:03.052Z,6.47
2022-11-02T13:00:33.406Z,2.27
2022-11-02T13:03:07.574Z,5.00
2022-11-02T13:05:40.095Z,7.80
2022-11-02T13:08:14.342Z,5.83
2022-11-02T13:10:49.406Z,9.43
2022-11-02T13:13:28.356Z,18.53
2022-11-02T13:15:57.325Z,6.00
2022-11-02T13:18:30.372Z,6.17
2022-11-02T13:21:00.393Z,7.63
2022-11-02T13:23:36.205Z,5.33
2022-11-02T13:26:06.204Z,8.63
2022-11-02T13:28:40.806Z,5.27
2022-11-02T13:31:14.277Z,4.93
2022-11-02T13:33:46.046Z,5.17
2022-11-02T13:36:17.619Z,7.17
2022-11-02T13:38:49.438Z,3.33
2022-11-02T13:41:33.677Z,5.33
2022-11-02T13:44:20.911Z,3.40
2022-11-02T13:47:03.356Z,4.17
2022-11-02T13:49:36.721Z,4.77
2022-11-02T13:52:10.685Z,4.50
2022-11-02T13:54:46.116Z,3.90
2022-11-02T13:57:27.276Z,8.77
2022-11-02T13:59:56.080Z,2.20
2022-11-02T14:02:25.168Z,4.03
2022-11-02T14:04:55.278Z,6.50
2022-11-02T14:07:25.737Z,8.60
2022-11-02T14:09:58.797Z,6.83
2022-11-02T14:12:29.783Z,4.70
2022-11-02T14:15:47.404Z,1.97
2022-11-02T14:18:30.717Z,4.97
2022-11-02T14:21:39.524Z,4.13
2022-11-02T14:24:53.949Z,5.00
2022-11-02T14:27:29.803Z,6.60
2022-11-02T14:29:59.072Z,5.70
2022-11-02T14:32:41.198Z,5.83
2022-11-02T14:35:31.144Z,6.70
2022-11-02T14:38:29.205Z,5.47
2022-11-02T14:41:05.087Z,8.73
2022-11-02T14:43:58.484Z,10.37
2022-11-02T14:46:39.939Z,5.50
2022-11-02T14:49:18.490Z,8.03
2022-11-02T14:52:02.578Z,16.27
2022-11-02T14:54:37.580Z,6.77
2022-11-02T14:57:07.785Z,9.57
2022-11-02T14:59:39.314Z,5.60
2022-11-02T15:02:13.951Z,7.80
2022-11-02T15:04:49.964Z,7.80
2022-11-02T15:07:21.530Z,6.63
2022-11-02T15:09:59.485Z,5.27
2022-11-02T15:12:31.610Z,6.90
2022-11-02T15:15:20.276Z,10.70
2022-11-02T15:17:54.063Z,6.57
2022-11-02T15:20:29.102Z,9.07
2022-11-02T15:23:01.856Z,7.70
2022-11-02T15:25:34.916Z,7.83
2022-11-02T15:28:08.411Z,5.50
2022-11-02T15:30:40.899Z,7.33
2022-11-02T15:33:19.688Z,10.67
2022-11-02T15:35:49.580Z,9.77
2022-11-02T15:38:21.796Z,7.03
2022-11-02T15:41:02.857Z,13.23
2022-11-02T15:44:03.471Z,24.83
2022-11-02T15:46:40.581Z,21.97
2022-11-02T15:49:19.822Z,9.97
2022-11-02T15:51:53.580Z,11.50
2022-11-02T15:54:34.935Z,12.53
2022-11-02T15:57:14.657Z,7.90
2022-11-02T15:59:55.642Z,15.20
2022-11-02T16:02:26.830Z,11.27
2022-11-02T16:04:57.107Z,9.93
2022-11-02T16:07:33.376Z,11.97
2022-11-02T16:10:21.940Z,14.50
2022-11-02T16:12:59.430Z,20.33
2022-11-02T16:15:29.026Z,20.20
2022-11-02T16:17:58.377Z,14.93
2022-11-02T16:20:28.986Z,17.17
2022-11-02T16:22:59.057Z,14.30
2022-11-02T16:25:40.246Z,14.13
2022-11-02T16:28:22.014Z,17.73
2022-11-02T16:31:17.341Z,15.90
2022-11-02T16:33:49.106Z,18.50
2022-11-02T16:36:19.590Z,14.33
2022-11-02T16:38:52.395Z,14.30
2022-11-02T16:41:21.214Z,11.83
2022-11-02T16:43:51.296Z,13.80
2022-11-02T16:46:30.318Z,14.43
2022-11-02T16:49:06.038Z,8.17
2022-11-02T16:51:34.836Z,12.53
2022-11-02T16:54:29.597Z,17.77
2022-11-02T16:57:03.223Z,13.77
2022-11-02T16:59:36.240Z,12.60
2022-11-02T17:02:05.627Z,13.63
2022-11-02T17:04:40.870Z,17.97
2022-11-02T17:07:12.853Z,13.57
2022-11-02T17:09:42.192Z,20.40
2022-11-02T17:12:14.319Z,21.37
2022-11-02T17:14:44.843Z,13.50
2022-11-02T17:17:32.297Z,15.13
2022-11-02T17:20:15.377Z,17.50
2022-11-02T17:22:51.146Z,19.43
2022-11-02T17:25:22.361Z,13.27
2022-11-02T17:27:52.326Z,14.93
2022-11-02T17:30:44.592Z,17.80
2022-11-02T17:33:27.772Z,13.10
2022-11-02T17:35:57.764Z,16.30
2022-11-02T17:38:28.004Z,15.70
2022-11-02T17:40:56.981Z,20.07
2022-11-02T17:43:24.628Z,22.40
2022-11-02T17:45:58.762Z,21.83
2022-11-02T17:48:28.824Z,17.00
2022-11-02T17:50:59.634Z,13.73
2022-11-02T17:53:28.516Z,19.90
2022-11-02T17:55:57.398Z,20.43
2022-11-02T17:58:26.057Z,22.90
2022-11-02T18:00:55.395Z,16.90
2022-11-02T18:03:29.928Z,14.60
2022-11-02T18:06:00.762Z,21.20
2022-11-02T18:08:30.051Z,17.83
2022-11-02T18:10:58.709Z,13.43
2022-11-02T18:13:27.340Z,17.63
2022-11-02T18:15:55.943Z,16.20
2022-11-02T18:18:25.902Z,14.33
2022-11-02T18:20:54.522Z,15.20
2022-11-02T18:23:23.133Z,18.23
2022-11-02T18:25:53.957Z,15.23
2022-11-02T18:28:25.425Z,20.20
2022-11-02T18:30:54.062Z,18.07
2022-11-02T18:33:23.544Z,12.80
2022-11-02T18:35:53.505Z,12.63
2022-11-02T18:38:22.132Z,20.53
2022-11-02T18:40:50.785Z,22.87
2022-11-02T18:43:19.424Z,28.97
2022-11-02T18:45:48.009Z,17.47
2022-11-02T18:48:16.871Z,22.73
2022-11-02T18:50:45.756Z,23.93
2022-11-02T18:53:15.688Z,11.23
2022-11-02T18:55:44.267Z,19.57
2022-11-02T18:58:12.876Z,11.13
2022-11-02T19:00:41.510Z,20.47
2022-11-02T19:03:11.554Z,15.13
2022-11-02T19:08:50.108Z,23.87
2022-11-02T19:11:18.753Z,17.70
2022-11-02T19:13:47.415Z,14.47
2022-11-02T19:16:16.018Z,15.32
2022-11-02T19:18:44.601Z,14.57
2022-11-02T19:21:13.224Z,14.53
2022-11-02T19:23:43.214Z,22.60
2022-11-02T19:26:11.950Z,19.90
2022-11-02T19:28:40.605Z,24.10
2022-11-02T19:31:09.347Z,14.70
2022-11-02T19:33:37.982Z,21.17
2022-11-02T19:36:07.141Z,25.50
2022-11-02T19:38:37.548Z,16.37
2022-11-02T19:41:10.821Z,18.23
2022-11-02T19:43:40.096Z,23.87
2022-11-02T19:46:10.810Z,13.30
2022-11-02T19:48:39.460Z,15.23
2022-11-02T19:51:10.889Z,16.90
2022-11-02T19:53:42.671Z,14.33
2022-11-02T19:56:13.763Z,18.00
2022-11-02T19:58:44.125Z,20.30
2022-11-02T20:01:14.369Z,16.37
2022-11-02T20:03:44.106Z,14.50
2022-11-02T20:06:14.421Z,23.50
2022-11-02T20:08:43.452Z,26.13
2022-11-02T20:11:16.180Z,16.93
2022-11-02T20:13:45.752Z,18.30
2022-11-02T20:16:16.331Z,25.23
2022-11-02T20:18:47.931Z,19.97
2022-11-02T20:21:17.865Z,19.07
2022-11-02T20:23:47.002Z,16.63
2022-11-02T20:26:18.791Z,28.10
2022-11-02T20:28:48.346Z,15.83
2022-11-02T20:31:19.491Z,13.40
2022-11-02T20:33:48.710Z,12.03
2022-11-02T20:36:17.463Z,17.23
2022-11-02T20:38:46.163Z,18.00
2022-11-02T20:41:17.492Z,19.80
2022-11-02T20:43:47.265Z,12.97
2022-11-02T20:46:36.455Z,12.23
2022-11-02T20:49:20.071Z,13.07
2022-11-02T20:51:51.646Z,10.43
2022-11-02T20:54:20.473Z,11.13
2022-11-02T20:56:50.728Z,16.73
2022-11-02T20:59:19.372Z,15.13
2022-11-02T21:01:48.150Z,14.03
2022-11-02T21:04:20.920Z,18.73
2022-11-02T21:06:50.531Z,14.80
2022-11-02T21:09:19.428Z,14.33
2022-11-02T21:12:05.725Z,11.13
2022-11-02T21:14:35.690Z,20.33
2022-11-02T21:17:06.666Z,13.07
2022-11-02T21:19:35.496Z,11.57
2022-11-02T21:22:04.099Z,15.13
2022-11-02T21:24:32.760Z,14.20
2022-11-02T21:27:01.415Z,16.47
2022-11-02T21:29:30.152Z,14.73
2022-11-02T21:32:00.623Z,21.03
2022-11-02T21:34:29.252Z,20.70
2022-11-02T21:36:57.850Z,16.90
2022-11-02T21:39:26.472Z,10.17
2022-11-02T21:41:55.069Z,14.10
2022-11-02T21:44:25.713Z,17.40
2022-11-02T21:46:54.324Z,14.47
2022-11-02T21:49:24.417Z,14.07
2022-11-02T21:51:53.012Z,9.50
2022-11-02T21:54:21.664Z,14.53
2022-11-02T21:56:50.329Z,13.03
2022-11-02T21:59:18.918Z,16.27
2022-11-02T22:01:48.233Z,14.10
2022-11-02T22:04:21.284Z,12.97
2022-11-02T22:06:51.367Z,8.83
2022-11-02T22:09:20.062Z,16.00
2022-11-02T22:12:08.747Z,17.60
2022-11-02T22:14:37.518Z,7.83
2022-11-02T22:17:16.504Z,11.90
2022-11-02T22:19:51.266Z,8.87
2022-11-02T22:22:21.231Z,14.57
2022-11-02T22:24:49.818Z,15.47
2022-11-02T22:27:18.466Z,10.43
2022-11-02T22:29:47.073Z,11.23
2022-11-02T22:32:15.687Z,14.00
2022-11-02T22:34:44.455Z,20.57
2022-11-02T22:37:30.861Z,12.93
2022-11-02T22:40:00.807Z,13.50
2022-11-02T22:42:29.408Z,12.50
2022-11-02T22:44:58.461Z,9.97
2022-11-02T22:47:27.115Z,11.40
2022-11-02T22:49:55.689Z,12.63
2022-11-02T22:52:24.301Z,12.17
2022-11-02T22:54:52.937Z,13.70
2022-11-02T22:57:22.850Z,11.53
2022-11-02T22:59:51.421Z,8.33
2022-11-02T23:02:20.056Z,19.90
2022-11-02T23:04:48.631Z,14.90
2022-11-02T23:07:17.246Z,11.50
2022-11-02T23:09:45.907Z,18.20
2022-11-02T23:12:13.534Z,9.47
2022-11-02T23:14:43.501Z,15.13
2022-11-02T23:17:12.251Z,10.77
2022-11-02T23:19:39.862Z,12.30
2022-11-02T23:22:27.813Z,11.50
2022-11-02T23:25:14.922Z,11.80
2022-11-02T23:27:58.810Z,11.23
2022-11-02T23:30:47.495Z,10.30
2022-11-02T23:33:16.202Z,8.17
2022-11-02T23:36:02.521Z,13.33
2022-11-02T23:38:51.123Z,11.00
2022-11-02T23:41:20.589Z,14.97
2022-11-02T23:43:49.396Z,10.20
2022-11-02T23:46:19.369Z,9.70
2022-11-02T23:48:51.119Z,17.87
2022-11-02T23:51:39.502Z,15.43
2022-11-02T23:54:26.567Z,10.63
2022-11-02T23:56:55.151Z,14.93
2022-11-02T23:59:23.729Z,9.40
